createdAt,value
2023-05-03T00:02:10.461Z,1.00
2023-05-03T00:04:37.811Z,0.90
2023-05-03T00:07:04.896Z,1.25
2023-05-03T00:09:34.182Z,1.13
2023-05-03T00:12:01.657Z,1.00
2023-05-03T00:14:28.796Z,1.15
2023-05-03T00:16:55.749Z,1.30
2023-05-03T00:19:31.479Z,1.17
2023-05-03T00:21:59.465Z,1.30
2023-05-03T00:24:27.189Z,1.20
2023-05-03T00:26:54.012Z,1.10
2023-05-03T00:29:22.810Z,1.10
2023-05-03T00:31:49.815Z,1.10
2023-05-03T00:34:16.681Z,1.10
2023-05-03T00:36:43.508Z,1.30
2023-05-03T00:39:11.441Z,1.20
2023-05-03T00:41:39.926Z,1.20
2023-05-03T00:44:06.835Z,1.15
2023-05-03T00:46:34.057Z,1.08
2023-05-03T00:49:01.280Z,1.20
2023-05-03T00:51:28.394Z,1.20
2023-05-03T00:53:56.192Z,1.20
2023-05-03T00:56:24.260Z,1.17
2023-05-03T00:58:52.251Z,1.40
2023-05-03T01:01:19.322Z,1.20
2023-05-03T01:03:47.287Z,1.30
2023-05-03T01:06:38.490Z,1.30
2023-05-03T01:09:31.614Z,1.10
2023-05-03T01:12:11.936Z,1.30
2023-05-03T01:15:01.660Z,1.13
2023-05-03T01:17:32.923Z,1.30
2023-05-03T01:20:08.628Z,1.40
2023-05-03T01:22:41.732Z,1.13
2023-05-03T01:25:13.273Z,1.30
2023-05-03T01:27:41.327Z,1.42
2023-05-03T01:30:10.976Z,1.20
2023-05-03T01:33:02.840Z,1.20
2023-05-03T01:35:47.483Z,1.30
2023-05-03T01:38:15.460Z,1.33
2023-05-03T01:40:48.631Z,1.42
2023-05-03T01:43:17.957Z,1.45
2023-05-03T01:45:47.656Z,1.50
2023-05-03T01:48:19.256Z,1.27
2023-05-03T01:50:46.791Z,1.20
2023-05-03T01:53:14.789Z,1.20
2023-05-03T01:55:42.892Z,1.40
2023-05-03T01:58:12.072Z,1.30
2023-05-03T02:00:39.014Z,1.40
2023-05-03T02:03:06.116Z,1.50
2023-05-03T02:05:32.983Z,1.50
2023-05-03T02:08:00.732Z,1.80
2023-05-03T02:10:27.570Z,1.60
2023-05-03T02:12:55.710Z,1.50
2023-05-03T02:15:22.599Z,1.40
2023-05-03T02:17:50.850Z,1.40
2023-05-03T02:20:18.068Z,1.60
2023-05-03T02:22:44.993Z,1.48
2023-05-03T02:25:11.913Z,1.70
2023-05-03T02:27:38.759Z,1.48
2023-05-03T02:30:06.653Z,1.52
2023-05-03T02:32:39.600Z,1.40
2023-05-03T02:35:07.776Z,1.60
2023-05-03T02:37:35.114Z,1.40
2023-05-03T02:40:09.567Z,1.53
2023-05-03T02:42:36.593Z,1.40
2023-05-03T02:45:04.556Z,1.50
2023-05-03T02:47:31.387Z,1.40
2023-05-03T02:49:59.039Z,1.40
2023-05-03T02:52:26.079Z,1.55
2023-05-03T02:54:53.330Z,1.70
2023-05-03T02:57:20.407Z,1.50
2023-05-03T02:59:47.329Z,1.50
2023-05-03T03:02:14.222Z,1.58
2023-05-03T03:04:41.003Z,1.50
2023-05-03T03:07:09.258Z,1.40
2023-05-03T03:09:36.170Z,1.40
2023-05-03T03:12:03.429Z,1.40
2023-05-03T03:14:30.566Z,1.70
2023-05-03T03:16:58.283Z,1.80
2023-05-03T03:19:25.146Z,1.60
2023-05-03T03:21:51.932Z,1.70
2023-05-03T03:24:19.152Z,1.50
2023-05-03T03:26:47.560Z,1.80
2023-05-03T03:29:14.527Z,1.80
2023-05-03T03:31:44.768Z,1.67
2023-05-03T03:34:15.130Z,1.70
2023-05-03T03:36:42.306Z,1.75
2023-05-03T03:39:09.864Z,1.70
2023-05-03T03:41:37.472Z,1.63
2023-05-03T03:44:04.911Z,1.60
2023-05-03T03:46:31.795Z,1.50
2023-05-03T03:48:59.738Z,1.50
2023-05-03T03:51:28.833Z,1.90
2023-05-03T03:53:56.057Z,1.60
2023-05-03T03:56:26.216Z,1.60
2023-05-03T03:58:55.009Z,1.77
2023-05-03T04:01:21.848Z,1.70
2023-05-03T04:03:49.226Z,1.60
2023-05-03T04:06:16.233Z,1.80
2023-05-03T04:08:43.114Z,1.70
2023-05-03T04:11:14.880Z,1.70
2023-05-03T04:13:48.558Z,1.70
2023-05-03T04:16:16.866Z,1.77
2023-05-03T04:18:45.316Z,1.73
2023-05-03T04:21:12.212Z,1.70
2023-05-03T04:23:40.362Z,1.50
2023-05-03T04:26:17.039Z,1.90
2023-05-03T04:28:52.745Z,1.80
2023-05-03T04:31:21.986Z,1.50
2023-05-03T04:33:52.829Z,1.70
2023-05-03T04:36:25.410Z,1.87
2023-05-03T04:38:53.008Z,1.70
2023-05-03T04:41:20.628Z,1.90
2023-05-03T04:43:48.168Z,1.90
2023-05-03T04:46:15.568Z,1.80
2023-05-03T04:48:42.963Z,1.70
2023-05-03T04:51:09.863Z,1.80
2023-05-03T04:53:36.834Z,1.40
2023-05-03T04:56:08.844Z,1.77
2023-05-03T04:58:39.103Z,1.60
2023-05-03T05:01:07.515Z,1.27
2023-05-03T05:03:34.635Z,1.70
2023-05-03T05:06:09.883Z,1.80
2023-05-03T05:08:37.866Z,1.50
2023-05-03T05:11:08.033Z,1.70
2023-05-03T05:13:35.811Z,1.80
2023-05-03T05:16:02.695Z,1.45
2023-05-03T05:18:29.851Z,1.52
2023-05-03T05:20:58.552Z,1.30
2023-05-03T05:23:25.490Z,1.63
2023-05-03T05:25:53.934Z,1.58
2023-05-03T05:28:21.090Z,1.65
2023-05-03T05:30:48.049Z,1.50
2023-05-03T05:33:16.676Z,1.50
2023-05-03T05:35:47.055Z,1.40
2023-05-03T05:38:14.016Z,1.58
2023-05-03T05:40:40.999Z,1.30
2023-05-03T05:43:07.886Z,1.40
2023-05-03T05:45:36.781Z,1.20
2023-05-03T05:48:04.678Z,1.40
2023-05-03T05:50:32.293Z,1.40
2023-05-03T05:53:03.306Z,1.33
2023-05-03T05:55:35.755Z,1.40
2023-05-03T05:58:02.593Z,1.40
2023-05-03T06:00:37.440Z,1.40
2023-05-03T06:03:04.711Z,1.40
2023-05-03T06:05:31.727Z,1.33
2023-05-03T06:07:58.931Z,1.30
2023-05-03T06:10:26.178Z,1.40
2023-05-03T06:12:55.294Z,1.50
2023-05-03T06:15:24.572Z,1.40
2023-05-03T06:17:51.630Z,1.50
2023-05-03T06:20:18.602Z,1.20
2023-05-03T06:22:47.061Z,1.30
2023-05-03T06:25:16.234Z,1.10
2023-05-03T06:27:46.395Z,1.40
2023-05-03T06:30:13.771Z,1.13
2023-05-03T06:32:42.487Z,1.98
2023-05-03T06:35:10.663Z,3.67
2023-05-03T06:37:39.172Z,3.53
2023-05-03T06:40:07.502Z,3.92
2023-05-03T06:42:34.834Z,2.45
2023-05-03T06:45:11.396Z,1.92
2023-05-03T06:47:40.122Z,1.90
2023-05-03T06:50:07.564Z,1.80
2023-05-03T06:52:34.675Z,2.17
2023-05-03T06:55:01.640Z,2.85
2023-05-03T06:57:28.973Z,2.40
2023-05-03T06:59:57.776Z,2.50
2023-05-03T07:02:26.708Z,2.30
2023-05-03T07:04:53.703Z,2.30
2023-05-03T07:07:21.072Z,2.80
2023-05-03T07:09:48.691Z,3.50
2023-05-03T07:12:16.429Z,3.15
2023-05-03T07:14:43.434Z,3.50
2023-05-03T07:17:10.638Z,2.70
2023-05-03T07:19:38.452Z,2.90
2023-05-03T07:22:05.593Z,2.67
2023-05-03T07:24:32.531Z,2.10
2023-05-03T07:26:59.563Z,2.65
2023-05-03T07:29:27.387Z,2.40
2023-05-03T07:31:54.466Z,2.30
2023-05-03T07:34:21.747Z,2.40
2023-05-03T07:36:48.681Z,2.00
2023-05-03T07:39:15.800Z,1.83
2023-05-03T07:41:44.977Z,1.80
2023-05-03T07:44:11.836Z,1.98
2023-05-03T07:46:38.751Z,2.15
2023-05-03T07:49:06.969Z,1.98
2023-05-03T07:51:37.374Z,1.85
2023-05-03T07:54:04.700Z,1.58
2023-05-03T07:56:31.885Z,1.85
2023-05-03T07:59:09.389Z,1.80
2023-05-03T08:01:37.668Z,1.58
2023-05-03T08:04:05.056Z,1.60
2023-05-03T08:06:33.202Z,1.98
2023-05-03T08:09:01.168Z,1.60
2023-05-03T08:11:30.183Z,1.55
2023-05-03T08:13:57.157Z,1.57
2023-05-03T08:16:24.448Z,1.90
2023-05-03T08:18:52.422Z,1.70
2023-05-03T08:21:19.434Z,1.50
2023-05-03T08:23:46.473Z,1.50
2023-05-03T08:26:14.550Z,1.60
2023-05-03T08:28:42.220Z,1.60
2023-05-03T08:31:09.498Z,2.03
2023-05-03T08:33:37.464Z,1.52
2023-05-03T08:36:04.664Z,1.50
2023-05-03T08:38:32.574Z,1.70
2023-05-03T08:41:18.403Z,1.77
2023-05-03T08:43:46.572Z,1.50
2023-05-03T08:46:14.075Z,1.60
2023-05-03T08:48:41.438Z,1.75
2023-05-03T08:51:09.871Z,1.40
2023-05-03T08:53:36.845Z,1.70
2023-05-03T08:56:08.711Z,1.50
2023-05-03T08:58:36.763Z,1.80
2023-05-03T09:01:08.766Z,2.00
2023-05-03T09:03:36.972Z,1.80
2023-05-03T09:06:19.988Z,1.85
2023-05-03T09:08:46.856Z,1.52
2023-05-03T09:11:24.199Z,1.88
2023-05-03T09:13:52.934Z,1.60
2023-05-03T09:16:27.538Z,1.60
2023-05-03T09:19:04.332Z,1.80
2023-05-03T09:21:34.059Z,1.83
2023-05-03T09:24:01.710Z,1.75
2023-05-03T09:26:29.601Z,2.05
2023-05-03T09:28:58.332Z,1.80
2023-05-03T09:31:25.991Z,1.75
2023-05-03T09:33:53.441Z,1.60
2023-05-03T09:36:20.458Z,1.90
2023-05-03T09:38:47.687Z,1.90
2023-05-03T09:41:15.161Z,1.80
2023-05-03T09:43:52.712Z,1.70
2023-05-03T09:46:20.434Z,1.70
2023-05-03T09:48:47.473Z,1.73
2023-05-03T09:51:14.408Z,1.70
2023-05-03T09:53:43.902Z,1.92
2023-05-03T09:56:14.775Z,1.90
2023-05-03T09:58:43.567Z,1.90
2023-05-03T10:01:11.041Z,1.60
2023-05-03T10:03:43.835Z,1.90
2023-05-03T10:06:28.105Z,1.70
2023-05-03T10:09:05.574Z,1.83
2023-05-03T10:11:35.189Z,1.63
2023-05-03T10:14:04.238Z,1.90
2023-05-03T10:16:41.095Z,1.83
2023-05-03T10:19:14.775Z,1.80
2023-05-03T10:22:07.712Z,1.83
2023-05-03T10:24:36.357Z,1.75
2023-05-03T10:27:08.323Z,1.80
2023-05-03T10:29:36.012Z,1.90
2023-05-03T10:32:26.574Z,1.98
2023-05-03T10:35:14.564Z,1.90
2023-05-03T10:37:42.986Z,1.80
2023-05-03T10:40:15.102Z,1.90
2023-05-03T10:43:00.741Z,1.88
2023-05-03T10:45:28.866Z,2.60
2023-05-03T10:48:22.836Z,1.90
2023-05-03T10:50:51.091Z,1.80
2023-05-03T10:53:38.825Z,2.17
2023-05-03T10:56:15.201Z,1.83
2023-05-03T10:58:42.998Z,2.20
2023-05-03T11:01:12.383Z,2.30
2023-05-03T11:04:04.908Z,2.08
2023-05-03T11:06:34.775Z,1.90
2023-05-03T11:09:04.249Z,2.30
2023-05-03T11:11:31.508Z,2.35
2023-05-03T11:13:58.802Z,2.10
2023-05-03T11:16:26.581Z,1.90
2023-05-03T11:18:54.725Z,2.10
2023-05-03T11:21:22.500Z,2.00
2023-05-03T11:23:49.481Z,2.00
2023-05-03T11:26:17.597Z,1.85
2023-05-03T11:28:45.237Z,1.77
2023-05-03T11:31:13.577Z,2.20
2023-05-03T11:33:41.570Z,2.10
2023-05-03T11:36:09.641Z,2.00
2023-05-03T11:38:39.426Z,1.90
2023-05-03T11:41:16.169Z,1.80
2023-05-03T11:43:45.550Z,2.03
2023-05-03T11:46:21.559Z,1.70
2023-05-03T11:48:49.676Z,1.95
2023-05-03T11:51:24.716Z,2.05
2023-05-03T11:53:52.642Z,1.83
2023-05-03T11:56:21.954Z,1.90
2023-05-03T11:58:53.034Z,1.80
2023-05-03T12:01:23.633Z,1.90
2023-05-03T12:03:55.389Z,1.80
2023-05-03T12:06:24.082Z,1.80
2023-05-03T12:08:51.624Z,1.80
2023-05-03T12:11:20.786Z,1.83
2023-05-03T12:13:58.470Z,1.67
2023-05-03T12:16:26.797Z,1.90
2023-05-03T12:19:02.707Z,1.70
2023-05-03T12:22:03.396Z,2.05
2023-05-03T12:24:34.751Z,1.70
2023-05-03T12:27:02.865Z,1.50
2023-05-03T12:29:34.841Z,1.85
2023-05-03T12:32:03.697Z,2.00
2023-05-03T12:34:35.810Z,1.90
2023-05-03T12:37:06.008Z,1.80
2023-05-03T12:39:33.927Z,1.67
2023-05-03T12:44:35.145Z,1.98
2023-05-03T12:47:03.833Z,1.80
2023-05-03T12:49:31.609Z,2.10
2023-05-03T12:54:33.578Z,2.33
2023-05-03T12:57:08.209Z,2.50
2023-05-03T12:59:41.904Z,2.35
2023-05-03T13:07:14.995Z,2.30
2023-05-03T13:12:33.409Z,2.28
2023-05-03T13:15:03.512Z,2.17
2023-05-03T13:17:32.004Z,2.10
2023-05-03T13:19:59.732Z,2.35
2023-05-03T13:22:27.070Z,2.03
2023-05-03T13:24:54.531Z,2.20
2023-05-03T13:27:21.299Z,2.47
2023-05-03T13:29:49.529Z,2.27
2023-05-03T13:32:16.871Z,2.43
2023-05-03T13:34:44.058Z,2.38
2023-05-03T13:37:11.566Z,2.38
2023-05-03T13:39:38.644Z,2.35
2023-05-03T13:42:06.068Z,2.00
2023-05-03T13:44:32.887Z,2.13
2023-05-03T13:46:59.673Z,2.20
2023-05-03T13:49:26.531Z,2.17
2023-05-03T13:51:54.485Z,2.22
2023-05-03T13:54:21.365Z,2.25
2023-05-03T13:56:48.702Z,2.33
2023-05-03T13:59:16.429Z,2.28
2023-05-03T14:01:43.633Z,2.30
2023-05-03T14:04:10.878Z,2.20
2023-05-03T14:06:40.251Z,2.17
2023-05-03T14:09:09.186Z,2.10
2023-05-03T14:11:36.278Z,2.38
2023-05-03T14:14:03.681Z,2.40
2023-05-03T14:16:40.865Z,2.30
2023-05-03T14:19:12.641Z,2.00
2023-05-03T14:21:41.655Z,2.13
2023-05-03T14:24:09.015Z,2.10
2023-05-03T14:26:36.816Z,2.00
2023-05-03T14:29:05.560Z,2.30
2023-05-03T14:31:33.794Z,1.92
2023-05-03T14:34:02.041Z,2.35
2023-05-03T14:36:34.730Z,2.50
2023-05-03T14:39:05.021Z,2.28
2023-05-03T14:41:35.053Z,2.20
2023-05-03T14:44:02.162Z,2.38
2023-05-03T14:46:29.219Z,2.50
2023-05-03T14:48:56.354Z,2.33
2023-05-03T14:51:24.169Z,2.20
2023-05-03T14:53:51.364Z,2.05
2023-05-03T14:56:18.302Z,2.30
2023-05-03T14:58:45.097Z,2.00
2023-05-03T15:01:19.677Z,2.47
2023-05-03T15:03:46.676Z,2.35
2023-05-03T15:06:13.507Z,2.17
2023-05-03T15:08:41.137Z,2.50
2023-05-03T15:11:08.851Z,2.40
2023-05-03T15:13:36.282Z,2.65
2023-05-03T15:16:03.610Z,2.80
2023-05-03T15:18:31.219Z,2.35
2023-05-03T15:20:58.520Z,2.40
2023-05-03T15:23:25.392Z,2.53
2023-05-03T15:25:52.267Z,2.55
2023-05-03T15:28:18.978Z,2.60
2023-05-03T15:30:45.779Z,2.70
2023-05-03T15:33:12.831Z,2.78
2023-05-03T15:35:40.647Z,2.70
2023-05-03T15:38:08.116Z,2.70
2023-05-03T15:40:34.928Z,2.87
2023-05-03T15:43:01.850Z,2.45
2023-05-03T15:45:28.908Z,2.10
2023-05-03T15:47:56.991Z,2.80
2023-05-03T15:50:24.077Z,2.30
2023-05-03T15:52:50.891Z,2.50
2023-05-03T15:55:18.630Z,2.65
2023-05-03T15:57:45.608Z,2.55
2023-05-03T16:00:15.957Z,2.78
2023-05-03T16:02:42.907Z,2.50
2023-05-03T16:05:11.617Z,2.60
2023-05-03T16:07:38.493Z,2.88
2023-05-03T16:10:06.671Z,2.40
2023-05-03T16:12:33.885Z,2.23
2023-05-03T16:15:00.886Z,2.50
2023-05-03T16:17:27.960Z,2.70
2023-05-03T16:19:54.761Z,2.58
2023-05-03T16:22:21.767Z,2.63
2023-05-03T16:24:48.805Z,2.40
2023-05-03T16:27:15.515Z,2.60
2023-05-03T16:29:42.341Z,2.45
2023-05-03T16:32:10.831Z,2.63
2023-05-03T16:34:37.989Z,2.63
2023-05-03T16:37:05.207Z,2.58
2023-05-03T16:39:32.763Z,2.47
2023-05-03T16:41:59.610Z,2.20
2023-05-03T16:44:26.691Z,2.40
2023-05-03T16:46:53.614Z,2.50
2023-05-03T16:49:20.452Z,2.58
2023-05-03T16:51:47.355Z,2.30
2023-05-03T16:54:16.705Z,2.63
2023-05-03T16:56:44.048Z,2.60
2023-05-03T16:59:10.946Z,2.30
2023-05-03T17:01:38.026Z,2.35
2023-05-03T17:04:06.261Z,2.40
2023-05-03T17:06:33.409Z,2.50
2023-05-03T17:09:00.708Z,2.22
2023-05-03T17:11:27.568Z,2.58
2023-05-03T17:13:54.408Z,2.40
2023-05-03T17:16:22.608Z,2.30
2023-05-03T17:18:49.587Z,2.20
2023-05-03T17:21:16.455Z,2.10
2023-05-03T17:23:43.506Z,2.38
2023-05-03T17:26:11.215Z,2.50
2023-05-03T17:28:38.693Z,2.30
2023-05-03T17:31:06.546Z,2.03
2023-05-03T17:33:34.346Z,2.67
2023-05-03T17:36:04.505Z,2.30
2023-05-03T17:38:35.702Z,2.50
2023-05-03T17:41:08.425Z,2.78
2023-05-03T17:43:39.099Z,1.80
2023-05-03T17:46:10.901Z,2.13
2023-05-03T17:48:39.737Z,2.28
2023-05-03T17:51:07.611Z,2.20
2023-05-03T17:53:34.569Z,1.97
2023-05-03T17:56:01.470Z,2.58
2023-05-03T17:58:28.333Z,2.40
2023-05-03T18:00:56.857Z,2.20
2023-05-03T18:03:24.244Z,2.47
2023-05-03T18:05:51.675Z,2.10
2023-05-03T18:08:18.547Z,2.10
2023-05-03T18:10:45.545Z,2.27
2023-05-03T18:13:12.845Z,2.30
2023-05-03T18:15:41.753Z,2.20
2023-05-03T18:18:09.465Z,2.40
2023-05-03T18:20:36.421Z,1.88
2023-05-03T18:23:03.671Z,2.40
2023-05-03T18:25:30.505Z,2.47
2023-05-03T18:27:57.612Z,2.38
2023-05-03T18:30:29.109Z,2.10
2023-05-03T18:32:56.280Z,2.03
2023-05-03T18:35:23.454Z,1.95
2023-05-03T18:37:50.491Z,2.05
2023-05-03T18:40:17.492Z,2.30
2023-05-03T18:42:44.457Z,2.50
2023-05-03T18:45:11.972Z,2.15
2023-05-03T18:47:38.833Z,2.30
2023-05-03T18:50:06.816Z,2.30
2023-05-03T18:52:33.759Z,2.20
2023-05-03T18:55:00.670Z,2.30
2023-05-03T18:57:27.505Z,2.35
2023-05-03T19:00:01.151Z,2.77
2023-05-03T19:02:31.139Z,2.30
2023-05-03T19:04:59.721Z,2.53
2023-05-03T19:07:27.043Z,2.30
2023-05-03T19:09:57.539Z,2.40
2023-05-03T19:12:24.408Z,2.42
2023-05-03T19:14:51.350Z,2.38
2023-05-03T19:17:18.253Z,2.10
2023-05-03T19:19:45.072Z,2.40
2023-05-03T19:22:11.837Z,2.50
2023-05-03T19:24:39.752Z,2.45
2023-05-03T19:27:06.725Z,2.30
2023-05-03T19:29:33.846Z,2.20
2023-05-03T19:32:00.764Z,2.27
2023-05-03T19:34:30.884Z,2.67
2023-05-03T19:36:57.698Z,2.20
2023-05-03T19:39:24.848Z,2.00
2023-05-03T19:41:52.981Z,2.23
2023-05-03T19:44:19.826Z,2.17
2023-05-03T19:46:46.664Z,1.90
2023-05-03T19:49:13.568Z,1.90
2023-05-03T19:51:40.396Z,2.10
2023-05-03T19:54:07.156Z,2.00
2023-05-03T19:56:34.169Z,2.20
2023-05-03T19:59:01.130Z,2.00
2023-05-03T20:01:27.910Z,2.00
2023-05-03T20:03:55.053Z,2.03
2023-05-03T20:06:22.309Z,2.00
2023-05-03T20:08:50.979Z,1.90
2023-05-03T20:11:19.603Z,2.10
2023-05-03T20:13:46.765Z,2.00
2023-05-03T20:16:13.677Z,2.00
2023-05-03T20:18:41.246Z,2.08
2023-05-03T20:21:08.180Z,1.80
2023-05-03T20:23:34.991Z,1.80
2023-05-03T20:26:01.913Z,2.00
2023-05-03T20:28:28.925Z,1.80
2023-05-03T20:30:55.730Z,2.22
2023-05-03T20:33:22.595Z,2.10
2023-05-03T20:35:49.417Z,2.07
2023-05-03T20:38:16.223Z,1.90
2023-05-03T20:40:43.016Z,1.92
2023-05-03T20:43:10.876Z,2.13
2023-05-03T20:45:37.724Z,2.00
2023-05-03T20:48:05.029Z,1.80
2023-05-03T20:50:31.961Z,1.92
2023-05-03T20:52:59.034Z,2.00
2023-05-03T20:55:26.081Z,2.13
2023-05-03T20:57:52.814Z,1.70
2023-05-03T21:00:21.910Z,1.90
2023-05-03T21:02:53.805Z,1.60
2023-05-03T21:05:21.657Z,1.50
2023-05-03T21:07:48.646Z,1.60
2023-05-03T21:10:15.483Z,1.60
2023-05-03T21:12:42.394Z,1.38
2023-05-03T21:15:09.686Z,1.45
2023-05-03T21:17:36.743Z,1.35
2023-05-03T21:20:06.462Z,1.30
2023-05-03T21:22:33.547Z,1.60
2023-05-03T21:25:00.283Z,1.40
2023-05-03T21:27:26.989Z,1.60
2023-05-03T21:29:53.751Z,1.40
2023-05-03T21:32:20.543Z,1.50
2023-05-03T21:34:47.324Z,1.60
2023-05-03T21:37:14.102Z,1.40
2023-05-03T21:39:41.087Z,1.40
2023-05-03T21:42:07.945Z,1.47
2023-05-03T21:44:35.109Z,1.50
2023-05-03T21:47:02.860Z,1.55
2023-05-03T21:49:29.748Z,1.30
2023-05-03T21:51:56.583Z,1.20
2023-05-03T21:54:23.539Z,1.30
2023-05-03T21:56:50.518Z,1.40
2023-05-03T21:59:17.415Z,1.27
2023-05-03T22:01:44.270Z,1.23
2023-05-03T22:04:11.369Z,1.40
2023-05-03T22:06:38.155Z,1.50
2023-05-03T22:09:04.965Z,1.43
2023-05-03T22:11:31.779Z,1.30
2023-05-03T22:14:07.364Z,1.20
2023-05-03T22:16:37.527Z,1.40
2023-05-03T22:19:05.227Z,1.38
2023-05-03T22:21:32.462Z,1.40
2023-05-03T22:23:59.412Z,1.30
2023-05-03T22:26:26.679Z,1.30
2023-05-03T22:28:54.144Z,1.10
2023-05-03T22:31:21.130Z,1.15
2023-05-03T22:33:48.881Z,1.10
2023-05-03T22:36:15.985Z,1.33
2023-05-03T22:38:43.328Z,1.27
2023-05-03T22:41:10.471Z,1.10
2023-05-03T22:43:37.387Z,1.20
2023-05-03T22:46:04.546Z,1.10
2023-05-03T22:48:32.590Z,1.20
2023-05-03T22:51:00.108Z,1.30
2023-05-03T22:53:27.039Z,1.08
2023-05-03T22:56:01.381Z,1.20
2023-05-03T22:58:28.795Z,1.30
2023-05-03T23:00:56.448Z,1.23
2023-05-03T23:03:23.428Z,1.20
2023-05-03T23:05:53.078Z,1.23
2023-05-03T23:08:20.707Z,1.43
2023-05-03T23:10:47.493Z,1.13
2023-05-03T23:13:14.654Z,1.10
2023-05-03T23:15:41.528Z,1.00
2023-05-03T23:18:08.556Z,1.20
2023-05-03T23:20:35.574Z,0.95
2023-05-03T23:23:02.466Z,1.05
2023-05-03T23:25:29.601Z,1.13
2023-05-03T23:27:56.542Z,1.20
2023-05-03T23:30:24.066Z,1.10
2023-05-03T23:32:51.621Z,1.10
2023-05-03T23:35:19.557Z,0.93
2023-05-03T23:37:46.398Z,1.00
2023-05-03T23:40:13.276Z,1.25
2023-05-03T23:42:41.288Z,0.93
2023-05-03T23:45:09.606Z,1.00
2023-05-03T23:47:36.896Z,0.90
2023-05-03T23:50:05.097Z,1.10
2023-05-03T23:52:32.338Z,1.13
2023-05-03T23:54:59.179Z,0.80
2023-05-03T23:57:26.623Z,1.17
2023-05-03T23:59:53.559Z,1.10
